Time;durP1;ratioP1;P1;durP2;ratioP2;P2;SDS_P1;SDS_P2;PMS_P1;PMS_P2;Temp;Humidity;BMP_temperature;BMP_pressure;BME280_temperature;BME280_humidity;BME280_pressure;Samples;Min_cycle;Max_cycle;Signal;HPM_P1;HPM_P2
2022/11/11 00:01:14;;;;;;;25.73;18.60;;;;;;;12.59;71.89;95769.13;4988846;28;20197;-86
2022/11/11 00:03:43;;;;;;;26.27;18.77;;;;;;;12.38;72.15;95731.41;5003181;28;20232;-85
2022/11/11 00:06:12;;;;;;;25.73;18.73;;;;;;;12.61;72.13;95768.06;5012773;28;20212;-86
2022/11/11 00:08:39;;;;;;;24.43;17.73;;;;;;;12.64;72.19;95761.84;5012963;28;20196;-85
2022/11/11 00:11:08;;;;;;;23.33;17.37;;;;;;;12.61;72.41;95750.09;5013072;28;20204;-86
2022/11/11 00:13:37;;;;;;;24.73;18.30;;;;;;;12.68;72.12;95766.63;5013628;28;20196;-86
2022/11/11 00:16:05;;;;;;;22.97;17.13;;;;;;;12.67;72.13;95756.47;5012888;28;20327;-85
2022/11/11 00:27:05;;;;;;;21.43;16.57;;;;;;;12.73;72.26;95771.38;5012066;28;20211;-86
2022/11/11 00:29:32;;;;;;;20.87;16.73;;;;;;;12.62;72.64;95756.84;5012333;28;20199;-86
2022/11/11 00:35:52;;;;;;;22.27;16.67;;;;;;;12.37;72.56;95709.25;5012175;28;20259;-86
2022/11/11 00:37:31;;;;;;;24.17;17.37;;;;;;;12.28;72.46;95699.75;5012226;28;20226;-86
2022/11/11 00:39:58;;;;;;;21.43;17.03;;;;;;;12.79;72.56;95776.84;5011362;28;20711;-85
2022/11/11 00:42:26;;;;;;;24.07;17.50;;;;;;;12.79;72.65;95774.28;5011617;28;20219;-85
2022/11/11 00:44:53;;;;;;;24.93;17.60;;;;;;;12.45;72.71;95717.16;5011691;28;20655;-86
2022/11/11 00:52:51;;;;;;;25.43;17.47;;;;;;;12.74;72.90;95763.56;5011880;28;20211;-85
2022/11/11 00:55:20;;;;;;;19.07;15.90;;;;;;;12.73;72.93;95753.41;5012309;28;20340;-85
2022/11/11 00:57:47;;;;;;;19.97;16.03;;;;;;;12.85;72.94;95767.81;5013319;28;20596;-85
2022/11/11 01:00:16;;;;;;;23.53;16.50;;;;;;;12.79;72.93;95758.88;5011472;28;20192;-85
2022/11/11 01:02:43;;;;;;;22.60;16.53;;;;;;;12.86;72.84;95766.06;5011858;28;20207;-85
2022/11/11 01:05:09;;;;;;;23.03;17.60;;;;;;;12.86;72.88;95761.72;5032552;28;20269;-85
2022/11/11 01:07:36;;;;;;;23.30;16.60;;;;;;;12.70;72.90;95739.09;5047117;28;20199;-85
2022/11/11 01:10:06;;;;;;;26.67;18.50;;;;;;;12.76;72.91;95742.91;5044581;28;20666;-85
2022/11/11 01:12:32;;;;;;;21.63;17.30;;;;;;;12.84;72.97;95752.53;5034080;28;20188;-87
2022/11/11 01:14:59;;;;;;;26.27;17.73;;;;;;;12.71;73.07;95727.88;5031911;28;20183;-85
2022/11/11 01:17:26;;;;;;;23.33;17.57;;;;;;;12.89;73.16;95766.63;5031397;28;20294;-86
2022/11/11 01:19:53;;;;;;;22.93;16.60;;;;;;;12.89;73.06;95760.69;5030877;28;20674;-84
2022/11/11 01:22:20;;;;;;;22.10;16.47;;;;;;;12.90;73.13;95768.25;5031072;28;20570;-85
2022/11/11 01:24:47;;;;;;;24.30;16.77;;;;;;;12.56;72.81;95706.00;5030949;28;20199;-86
2022/11/11 01:27:15;;;;;;;22.33;17.17;;;;;;;12.67;73.27;95730.81;5030054;28;20198;-85
2022/11/11 01:29:42;;;;;;;25.37;17.57;;;;;;;12.77;73.49;95747.91;5031309;28;20655;-86
2022/11/11 01:32:09;;;;;;;21.20;16.87;;;;;;;12.90;73.20;95760.53;5031047;28;20207;-85
2022/11/11 01:34:36;;;;;;;24.53;17.53;;;;;;;12.92;73.24;95763.00;5036738;28;20226;-85
2022/11/11 01:37:03;;;;;;;23.70;16.47;;;;;;;12.92;73.36;95763.00;5049123;28;20219;-85
2022/11/11 01:39:30;;;;;;;22.00;16.33;;;;;;;12.91;73.28;95758.78;5043477;28;20635;-86
2022/11/11 01:41:57;;;;;;;23.30;17.73;;;;;;;12.89;73.50;95745.28;5032528;28;20203;-88
2022/11/11 01:44:46;;;;;;;23.80;16.57;;;;;;;12.88;73.21;95754.72;5031720;28;20192;-88
2022/11/11 01:47:14;;;;;;;22.60;16.90;;;;;;;12.71;73.34;95735.56;5034320;28;20744;-86
2022/11/11 01:49:49;;;;;;;22.50;17.10;;;;;;;12.91;73.16;95763.91;5021157;28;20204;-85
2022/11/11 01:52:20;;;;;;;21.77;16.93;;;;;;;12.75;73.56;95742.09;5015024;28;20207;-85
2022/11/11 01:54:50;;;;;;;19.93;16.87;;;;;;;12.89;73.40;95766.63;5011608;28;20196;-85
2022/11/11 01:57:22;;;;;;;21.53;16.80;;;;;;;12.87;73.44;95765.13;5011396;28;20578;-85
2022/11/11 01:59:59;;;;;;;24.77;18.07;;;;;;;12.90;73.39;95775.94;5011005;28;20200;-85
2022/11/11 02:02:32;;;;;;;25.33;18.50;;;;;;;12.87;73.54;95765.13;5011161;28;20203;-84
2022/11/11 02:07:48;;;;;;;22.03;17.10;;;;;;;12.67;73.68;95741.88;5011043;28;20200;-87
2022/11/11 02:10:18;;;;;;;25.40;17.90;;;;;;;12.79;73.82;95765.75;5010590;28;20206;-87
2022/11/11 02:15:30;;;;;;;24.97;18.40;;;;;;;12.85;73.92;95780.66;5010375;28;20671;-86
2022/11/11 02:17:57;;;;;;;23.83;17.50;;;;;;;12.85;73.96;95788.34;5016070;28;20184;-85
2022/11/11 02:20:27;;;;;;;25.43;18.63;;;;;;;12.49;73.92;95722.84;5014026;28;20196;-86
2022/11/11 02:23:00;;;;;;;23.63;17.50;;;;;;;12.47;74.06;95717.84;5014600;28;20215;-86
2022/11/11 02:25:32;;;;;;;26.47;19.73;;;;;;;12.78;74.13;95770.06;5014067;28;20795;-87
2022/11/11 02:28:04;;;;;;;26.73;19.37;;;;;;;12.85;74.07;95782.41;5014918;28;20206;-87
2022/11/11 02:30:30;;;;;;;24.30;18.07;;;;;;;12.43;74.13;95708.75;5016609;28;20258;-86
2022/11/11 02:32:58;;;;;;;24.87;17.57;;;;;;;12.85;74.15;95770.38;5018070;28;20683;-87
2022/11/11 02:35:29;;;;;;;26.07;18.80;;;;;;;12.84;74.14;95773.91;5018709;28;20223;-85
2022/11/11 02:37:58;;;;;;;25.73;19.60;;;;;;;12.58;74.21;95734.94;5020155;28;20203;-86
2022/11/11 02:40:31;;;;;;;26.07;19.30;;;;;;;12.80;74.31;95778.47;5020253;28;20197;-85
2022/11/11 02:42:58;;;;;;;26.23;19.40;;;;;;;12.75;74.42;95765.19;5023899;28;20263;-88
2022/11/11 02:45:25;;;;;;;24.37;18.87;;;;;;;12.64;74.21;95749.03;5023219;28;20204;-88
2022/11/11 02:47:52;;;;;;;27.10;18.80;;;;;;;12.65;74.28;95748.06;5034244;28;20253;-88
2022/11/11 02:50:20;;;;;;;26.57;18.37;;;;;;;12.36;74.56;95694.00;5021417;28;20188;-89
2022/11/11 02:52:47;;;;;;;25.60;18.87;;;;;;;12.74;74.34;95752.50;5022144;28;20263;-87
2022/11/11 02:55:14;;;;;;;31.03;19.80;;;;;;;12.86;74.15;95769.44;5018835;28;20671;-87
2022/11/11 02:57:43;;;;;;;25.70;17.80;;;;;;;12.83;74.29;95758.63;5027830;28;20236;-87
2022/11/11 03:00:11;;;;;;;25.50;18.07;;;;;;;12.85;74.02;95761.88;5022106;28;20204;-85
2022/11/11 03:02:38;;;;;;;23.10;18.03;;;;;;;12.98;73.99;95776.13;5023744;28;20197;-88
2022/11/11 03:05:05;;;;;;;24.47;18.20;;;;;;;13.02;73.96;95780.09;5021226;28;20244;-87
2022/11/11 03:07:32;;;;;;;23.43;17.57;;;;;;;12.80;73.94;95747.66;5015415;28;20205;-88
2022/11/11 03:09:59;;;;;;;27.23;18.10;;;;;;;13.05;74.37;95771.31;5015814;28;20192;-86
2022/11/11 03:12:26;;;;;;;26.20;18.43;;;;;;;13.05;74.22;95768.75;5014502;28;20196;-88
2022/11/11 03:14:55;;;;;;;25.37;18.00;;;;;;;13.04;74.18;95762.81;5015337;28;20208;-88
2022/11/11 03:17:39;;;;;;;24.03;18.80;;;;;;;13.11;74.03;95767.44;5015173;28;20212;-88
2022/11/11 03:23:00;;;;;;;23.33;18.37;;;;;;;13.17;74.14;95759.22;5014385;28;20183;-87
2022/11/11 03:25:39;;;;;;;26.33;19.63;;;;;;;13.23;74.00;95774.16;5013867;28;20196;-89
2022/11/11 03:28:06;;;;;;;22.53;18.07;;;;;;;13.36;73.89;95782.47;5013878;28;20295;-88
2022/11/11 03:30:35;;;;;;;24.90;17.20;;;;;;;13.39;73.91;95786.56;5013067;28;20196;-87
2022/11/11 03:33:03;;;;;;;21.37;16.60;;;;;;;13.34;73.97;95765.53;5013779;28;20211;-88
2022/11/11 03:35:30;;;;;;;21.93;17.17;;;;;;;13.43;73.84;95767.38;5033416;28;20192;-88
2022/11/11 03:40:52;;;;;;;24.67;18.50;;;;;;;13.46;73.89;95770.47;4936432;29;20202;-87
2022/11/11 03:43:21;;;;;;;23.87;17.70;;;;;;;13.43;73.79;95755.34;4938774;29;20255;-87
2022/11/11 03:45:50;;;;;;;22.37;17.93;;;;;;;13.41;73.78;95757.19;4938932;29;20266;-88
2022/11/11 03:48:18;;;;;;;21.60;16.87;;;;;;;13.61;73.80;95781.25;4937712;29;20191;-88
2022/11/11 03:50:46;;;;;;;23.57;17.40;;;;;;;13.61;73.90;95776.09;4939074;29;20203;-89
2022/11/11 03:53:14;;;;;;;22.90;17.57;;;;;;;13.59;73.89;95757.41;4941798;29;20191;-86
2022/11/11 03:55:41;;;;;;;22.70;17.50;;;;;;;13.54;73.80;95757.78;4942214;29;20907;-86
2022/11/11 03:58:11;;;;;;;21.50;17.30;;;;;;;13.74;73.90;95786.97;4943175;29;20233;-86
2022/11/11 04:00:38;;;;;;;22.73;17.10;;;;;;;13.65;73.74;95759.47;4942654;29;20191;-87
2022/11/11 04:11:27;;;;;;;23.10;18.20;;;;;;;13.86;74.00;95776.56;4955429;29;20253;-87
2022/11/11 04:16:40;;;;;;;22.70;17.87;;;;;;;13.83;74.05;95767.38;4984913;28;20223;-86
2022/11/11 04:21:53;;;;;;;25.20;17.80;;;;;;;13.95;74.21;95781.75;5017659;28;20199;-87
2022/11/11 04:27:08;;;;;;;21.07;17.77;;;;;;;14.00;74.14;95789.06;5013323;28;20243;-87
2022/11/11 04:29:34;;;;;;;22.00;17.13;;;;;;;14.02;74.19;95789.75;5013250;28;20204;-87
2022/11/11 04:34:53;;;;;;;24.57;17.17;;;;;;;14.00;74.45;95784.75;5032596;28;20223;-89
2022/11/11 04:42:54;;;;;;;22.20;17.53;;;;;;;13.83;74.29;95749.38;5031147;28;20191;-90
2022/11/11 04:45:29;;;;;;;23.40;17.70;;;;;;;14.00;74.33;95776.22;5025761;28;20215;-85
2022/11/11 04:48:03;;;;;;;23.40;17.23;;;;;;;13.98;74.45;95776.34;5019226;28;20364;-90
2022/11/11 04:50:35;;;;;;;23.60;17.50;;;;;;;14.16;74.44;95799.69;5017012;28;20193;-89
2022/11/11 04:53:05;;;;;;;20.33;16.50;;;;;;;14.18;74.46;95804.69;5016964;28;20192;-91
2022/11/11 04:58:17;;;;;;;24.63;17.63;;;;;;;14.12;74.53;95787.19;5023048;28;20279;-90
2022/11/11 05:00:44;;;;;;;22.67;17.87;;;;;;;13.92;74.29;95751.16;5028579;28;20225;-91
2022/11/11 05:03:17;;;;;;;23.37;17.43;;;;;;;14.24;74.32;95801.56;5011660;28;20204;-91
2022/11/11 05:11:18;;;;;;;21.33;16.77;;;;;;;14.10;74.32;95783.94;5016791;28;20195;-91
2022/11/11 05:22:14;;;;;;;22.57;16.67;;;;;;;14.27;74.58;95791.84;5009500;28;20207;-90
2022/11/11 05:27:29;;;;;;;21.50;16.93;;;;;;;14.25;74.47;95788.59;4974034;28;20224;-88
2022/11/11 05:29:59;;;;;;;19.47;16.23;;;;;;;14.19;74.53;95778.00;4987892;28;20664;-90
2022/11/11 05:32:26;;;;;;;22.33;16.77;;;;;;;14.20;74.46;95780.44;5002302;28;20193;-89
2022/11/11 05:34:53;;;;;;;20.77;16.10;;;;;;;13.92;74.42;95745.19;4992093;28;20193;-90
2022/11/11 05:37:24;;;;;;;20.13;15.77;;;;;;;14.41;74.51;95823.28;4989764;28;20273;-89
2022/11/11 05:39:51;;;;;;;21.23;16.80;;;;;;;14.03;74.42;95763.06;4978983;28;20280;-87
2022/11/11 05:42:27;;;;;;;20.70;16.23;;;;;;;14.25;74.37;95798.06;4974818;28;20275;-93
2022/11/11 05:44:54;;;;;;;19.90;16.20;;;;;;;14.10;74.42;95776.22;4976606;28;20197;-87
2022/11/11 05:47:21;;;;;;;19.47;16.27;;;;;;;14.44;74.35;95831.53;4990955;28;20193;-86
2022/11/11 05:49:50;;;;;;;23.53;16.03;;;;;;;14.36;74.12;95817.72;4989717;28;20208;-86
2022/11/11 05:52:21;;;;;;;20.57;15.90;;;;;;;14.16;74.21;95778.25;4996719;28;20225;-88
2022/11/11 05:54:49;;;;;;;21.10;15.67;;;;;;;14.28;74.12;95810.66;5016555;28;20715;-87
2022/11/11 05:57:17;;;;;;;20.53;15.73;;;;;;;14.47;74.29;95845.91;5018516;28;20220;-87
2022/11/11 05:59:44;;;;;;;18.83;14.40;;;;;;;14.40;74.14;95834.53;5016239;28;20204;-88
2022/11/11 06:02:11;;;;;;;23.97;15.43;;;;;;;14.27;74.38;95815.00;5011338;28;20279;-85
2022/11/11 06:04:38;;;;;;;19.57;15.47;;;;;;;14.48;74.25;95848.38;5012238;28;20239;-87
2022/11/11 06:07:05;;;;;;;20.30;14.77;;;;;;;14.21;74.15;95805.25;4991554;28;20614;-88
2022/11/11 06:09:32;;;;;;;19.67;14.83;;;;;;;14.35;74.05;95827.19;5011759;28;20591;-89
2022/11/11 06:12:00;;;;;;;20.27;15.93;;;;;;;14.42;74.27;95835.19;5016121;28;20200;-89
2022/11/11 06:14:27;;;;;;;19.93;15.90;;;;;;;14.25;74.16;95813.50;5016326;28;20578;-88
2022/11/11 06:16:54;;;;;;;21.30;15.90;;;;;;;14.61;74.03;95873.06;5016210;28;20228;-89
2022/11/11 06:19:21;;;;;;;21.17;15.80;;;;;;;14.55;74.28;95870.09;5016286;28;20197;-89
2022/11/11 06:21:57;;;;;;;21.27;15.60;;;;;;;14.50;74.27;95861.13;5014991;28;20200;-89
2022/11/11 06:24:25;;;;;;;20.10;15.87;;;;;;;14.62;74.21;95890.13;5019171;28;20203;-89
2022/11/11 06:26:52;;;;;;;20.70;16.17;;;;;;;14.58;74.24;95886.19;5016861;28;20653;-90
2022/11/11 06:29:21;;;;;;;20.63;15.60;;;;;;;14.44;74.11;95865.00;5019876;28;20200;-89
2022/11/11 06:31:48;;;;;;;19.97;14.93;;;;;;;14.54;74.10;95875.34;5016592;28;20203;-90
2022/11/11 06:34:16;;;;;;;20.73;15.20;;;;;;;14.52;74.14;95878.06;5016732;28;20196;-89
2022/11/11 06:36:43;;;;;;;23.70;16.00;;;;;;;14.67;74.06;95909.38;5015719;28;20232;-89
2022/11/11 06:39:10;;;;;;;19.97;14.73;;;;;;;14.67;74.29;95906.81;5015404;28;20212;-88
2022/11/11 06:41:37;;;;;;;19.83;15.30;;;;;;;14.68;74.21;95910.19;5018071;28;20972;-90
2022/11/11 06:44:04;;;;;;;21.73;16.13;;;;;;;14.17;74.17;95826.22;5017073;28;20270;-89
2022/11/11 06:46:34;;;;;;;22.47;15.17;;;;;;;14.24;74.29;95838.41;5016562;28;20196;-89
2022/11/11 06:49:02;;;;;;;24.50;15.70;;;;;;;14.49;74.22;95885.22;5015967;28;20207;-88
2022/11/11 06:51:29;;;;;;;19.17;15.13;;;;;;;14.50;74.22;95886.84;5023112;28;20264;-89
2022/11/11 06:53:56;;;;;;;21.70;15.93;;;;;;;14.35;74.14;95859.84;5021810;28;20672;-89
2022/11/11 06:56:23;;;;;;;20.80;15.03;;;;;;;14.52;74.18;95897.84;5015373;28;20212;-89
2022/11/11 06:58:51;;;;;;;18.87;15.83;;;;;;;14.19;74.23;95838.00;5012370;28;20253;-88
2022/11/11 07:01:19;;;;;;;18.10;14.73;;;;;;;14.69;74.38;95927.28;5000470;28;20208;-89
2022/11/11 07:03:48;;;;;;;23.13;14.90;;;;;;;14.63;74.31;95910.59;4999935;28;20231;-89
2022/11/11 07:06:14;;;;;;;20.90;15.00;;;;;;;14.69;74.34;95917.00;5017297;28;20201;-88
2022/11/11 07:08:43;;;;;;;18.73;14.47;;;;;;;14.48;74.33;95881.84;5015707;28;20198;-89
2022/11/11 07:11:10;;;;;;;18.90;14.73;;;;;;;14.58;74.24;95906.78;5016220;28;20251;-89
2022/11/11 07:13:38;;;;;;;19.33;15.10;;;;;;;14.42;74.37;95872.06;5015550;28;20303;-89
2022/11/11 07:16:09;;;;;;;20.63;14.17;;;;;;;14.69;74.23;95915.22;5018485;28;20204;-90
2022/11/11 07:18:36;;;;;;;20.10;15.03;;;;;;;14.67;74.21;95913.72;5021013;28;20564;-91
2022/11/11 07:21:06;;;;;;;18.53;14.50;;;;;;;14.74;74.35;95922.56;5018120;28;20204;-90
2022/11/11 07:23:34;;;;;;;20.40;14.87;;;;;;;14.83;74.15;95936.41;5017669;28;20201;-89
2022/11/11 07:26:01;;;;;;;18.37;14.23;;;;;;;14.85;74.23;95940.44;5017356;28;20279;-90
2022/11/11 07:28:29;;;;;;;17.87;14.43;;;;;;;14.27;74.12;95839.91;5016862;28;20203;-90
2022/11/11 07:30:56;;;;;;;21.77;14.40;;;;;;;14.76;74.15;95921.44;5006339;28;20192;-89
2022/11/11 07:33:23;;;;;;;16.53;13.67;;;;;;;14.74;74.13;95918.22;5031952;28;20184;-89
2022/11/11 07:35:49;;;;;;;17.30;13.50;;;;;;;14.71;74.26;95917.66;5015352;28;20231;-91
2022/11/11 07:38:30;;;;;;;17.37;13.07;;;;;;;14.35;74.33;95855.50;5022998;28;20238;-90
2022/11/11 07:40:57;;;;;;;20.10;14.77;;;;;;;14.81;74.21;95936.53;5014519;28;20192;-90
2022/11/11 07:43:24;;;;;;;17.53;12.93;;;;;;;14.85;74.11;95932.72;5014416;28;20193;-91
2022/11/11 07:45:51;;;;;;;18.63;13.40;;;;;;;14.69;74.15;95915.22;5015832;28;20204;-89
2022/11/11 07:48:20;;;;;;;17.87;13.33;;;;;;;14.79;74.05;95926.34;5015186;28;20856;-90
2022/11/11 07:50:48;;;;;;;17.43;13.33;;;;;;;14.79;74.10;95925.53;5016311;28;20228;-92
2022/11/11 07:53:15;;;;;;;19.60;13.17;;;;;;;14.84;73.83;95941.41;5015356;28;20202;-90
2022/11/11 07:55:45;;;;;;;16.97;12.80;;;;;;;15.02;74.12;95969.91;5015102;28;20306;-91
2022/11/11 07:58:12;;;;;;;17.53;13.20;;;;;;;14.94;73.90;95960.28;5015292;28;20231;-91
2022/11/11 08:00:39;;;;;;;25.80;13.87;;;;;;;15.02;73.78;95977.63;5016651;28;20184;-90
2022/11/11 08:03:06;;;;;;;17.00;12.63;;;;;;;14.70;73.96;95922.00;5017578;28;20200;-90
2022/11/11 08:05:33;;;;;;;18.67;12.07;;;;;;;15.00;74.12;95972.63;5017963;28;20236;-89
2022/11/11 08:08:04;;;;;;;17.50;12.67;;;;;;;15.00;73.95;95969.22;5018344;28;20283;-89
2022/11/11 08:10:31;;;;;;;14.27;12.00;;;;;;;14.60;74.07;95907.50;5018579;28;20188;-91
2022/11/11 08:15:44;;;;;;;20.10;11.53;;;;;;;14.99;73.80;95967.59;5015118;28;20223;-93
2022/11/11 08:18:11;;;;;;;17.27;11.80;;;;;;;15.00;73.94;95969.22;5014437;28;20220;-87
2022/11/11 08:20:38;;;;;;;18.13;12.00;;;;;;;14.55;73.80;95906.13;5012900;28;20732;-90
2022/11/11 08:23:09;;;;;;;15.03;11.40;;;;;;;14.97;73.64;95967.72;4999409;28;20208;-90
2022/11/11 08:25:37;;;;;;;16.93;12.03;;;;;;;14.92;73.73;95953.63;5001888;28;20199;-87
2022/11/11 08:28:08;;;;;;;15.73;11.30;;;;;;;15.14;73.61;95971.41;5000118;28;20196;-90
2022/11/11 08:30:35;;;;;;;13.97;10.63;;;;;;;14.93;73.37;95934.63;5007506;28;20262;-86
2022/11/11 08:33:04;;;;;;;16.47;11.83;;;;;;;15.13;73.21;95956.09;5001542;28;20202;-87
2022/11/11 08:35:32;;;;;;;14.07;11.20;;;;;;;15.33;73.00;95978.34;4996496;28;20545;-89
2022/11/11 08:38:04;;;;;;;15.70;11.03;;;;;;;15.14;73.04;95944.81;5004811;28;20307;-90
2022/11/11 08:40:31;;;;;;;12.43;10.53;;;;;;;15.36;72.82;95974.69;5000401;28;20189;-88
2022/11/11 08:42:58;;;;;;;15.23;11.40;;;;;;;15.09;72.80;95929.78;5007246;28;20291;-87
2022/11/11 08:45:27;;;;;;;14.07;11.17;;;;;;;15.28;72.75;95947.84;5006318;28;20189;-86
2022/11/11 08:47:54;;;;;;;15.13;11.20;;;;;;;15.29;72.73;95940.91;5008370;28;20204;-86
2022/11/11 08:50:21;;;;;;;11.17;9.80;;;;;;;15.56;72.67;95984.03;5003340;28;20280;-92
2022/11/11 08:52:48;;;;;;;14.40;10.47;;;;;;;15.56;72.42;95978.88;5000326;28;20216;-89
2022/11/11 08:55:17;;;;;;;12.87;9.50;;;;;;;15.60;72.38;95976.84;5002203;28;20664;-87
2022/11/11 08:57:44;;;;;;;12.20;10.17;;;;;;;15.63;72.21;95972.25;5002870;28;20219;-83
2022/11/11 09:00:12;;;;;;;11.33;9.87;;;;;;;15.68;72.16;95970.09;4999349;28;20204;-85
2022/11/11 09:02:40;;;;;;;13.17;10.30;;;;;;;15.77;72.06;95976.19;4995427;28;20205;-86
2022/11/11 09:05:08;;;;;;;13.97;10.30;;;;;;;15.76;71.99;95965.06;4992876;28;20224;-86
2022/11/11 09:07:35;;;;;;;11.07;9.57;;;;;;;15.85;71.84;95973.75;4996106;28;20200;-87
2022/11/11 09:10:01;;;;;;;13.20;10.20;;;;;;;15.66;71.76;95940.22;5010437;28;20204;-86
2022/11/11 09:12:28;;;;;;;12.93;9.53;;;;;;;15.90;71.74;95974.13;5011004;28;20207;-85
2022/11/11 09:14:55;;;;;;;13.83;9.60;;;;;;;15.92;71.88;95971.41;5005071;28;20201;-86
2022/11/11 09:17:22;;;;;;;11.20;9.17;;;;;;;15.76;71.77;95946.19;4999501;28;20216;-85
2022/11/11 09:19:50;;;;;;;11.30;9.87;;;;;;;15.86;71.69;95956.50;4995075;28;20197;-86
2022/11/11 09:22:17;;;;;;;13.87;9.83;;;;;;;15.98;71.55;95974.25;5002234;28;20196;-86
2022/11/11 09:24:44;;;;;;;10.90;9.37;;;;;;;15.99;71.45;95975.88;5002805;28;20204;-86
2022/11/11 09:27:11;;;;;;;12.83;9.27;;;;;;;16.00;71.39;95974.91;5011609;28;20675;-91
2022/11/11 09:29:38;;;;;;;11.30;8.90;;;;;;;16.01;71.40;95973.16;5011540;28;20196;-87
2022/11/11 09:32:06;;;;;;;13.97;9.43;;;;;;;16.00;71.55;95966.38;5017797;28;20210;-85
2022/11/11 09:34:32;;;;;;;11.20;9.07;;;;;;;15.97;71.30;95958.91;5018239;28;20199;-86
2022/11/11 09:37:01;;;;;;;13.03;9.03;;;;;;;16.02;71.29;95965.28;5024052;28;20201;-82
2022/11/11 09:39:28;;;;;;;9.50;8.47;;;;;;;15.97;71.25;95959.69;5015305;28;20731;-87
2022/11/11 09:42:03;;;;;;;13.40;9.53;;;;;;;16.02;71.23;95957.53;5021483;28;20195;-83
2022/11/11 09:44:47;;;;;;;10.07;8.43;;;;;;;16.03;71.29;95961.75;5012415;28;20199;-85
2022/11/11 09:47:21;;;;;;;10.60;8.37;;;;;;;15.82;71.07;95925.00;5012018;28;20200;-85
2022/11/11 09:49:58;;;;;;;10.77;8.67;;;;;;;15.78;71.13;95918.50;5029504;28;20199;-85
2022/11/11 09:52:31;;;;;;;9.70;7.63;;;;;;;16.05;70.86;95953.84;5023613;28;20583;-86
2022/11/11 09:55:04;;;;;;;10.53;7.83;;;;;;;15.88;70.74;95921.03;5019308;28;20185;-86
2022/11/11 09:57:37;;;;;;;9.83;7.70;;;;;;;16.09;70.69;95951.81;5009783;28;20208;-87
2022/11/11 10:00:08;;;;;;;10.37;8.27;;;;;;;16.12;70.60;95943.78;5008599;28;20200;-81
2022/11/11 10:02:40;;;;;;;9.90;7.97;;;;;;;16.16;70.41;95943.38;4998777;28;20197;-82
2022/11/11 10:05:13;;;;;;;8.90;7.87;;;;;;;16.21;70.43;95942.94;5010013;28;20258;-90
2022/11/11 10:07:53;;;;;;;8.93;7.97;;;;;;;16.24;69.92;95940.09;5004539;28;20203;-92
2022/11/11 10:10:30;;;;;;;9.63;7.47;;;;;;;16.23;69.79;95928.13;5004621;28;21120;-91
2022/11/11 10:12:58;;;;;;;8.43;7.23;;;;;;;16.28;69.76;95941.44;5006904;28;20679;-80
2022/11/11 10:15:34;;;;;;;8.93;7.50;;;;;;;16.40;69.49;95945.44;5012000;28;20295;-87
2022/11/11 10:18:17;;;;;;;7.97;7.13;;;;;;;16.41;69.26;95933.38;5006019;28;20211;-89
2022/11/11 10:20:52;;;;;;;11.57;7.63;;;;;;;16.60;68.95;95945.34;5003777;28;20188;-86
2022/11/11 10:23:26;;;;;;;9.30;7.50;;;;;;;16.70;68.75;95948.69;5010388;28;20273;-86
2022/11/11 10:25:55;;;;;;;8.93;6.90;;;;;;;16.62;68.48;95915.81;5006240;28;20200;-86
2022/11/11 10:28:29;;;;;;;10.33;7.47;;;;;;;16.77;68.37;95926.53;5012643;28;20200;-86
2022/11/11 10:30:57;;;;;;;13.03;8.17;;;;;;;16.97;68.21;95943.53;5010470;28;20227;-85
2022/11/11 10:33:29;;;;;;;8.97;7.17;;;;;;;16.69;67.85;95888.47;5008166;28;20201;-87
2022/11/11 10:36:03;;;;;;;8.23;7.43;;;;;;;17.10;67.81;95934.59;5009776;28;20197;-85
2022/11/11 10:38:42;;;;;;;9.77;7.77;;;;;;;17.13;67.71;95934.31;5017874;28;20223;-87
2022/11/11 10:41:14;;;;;;;8.17;7.37;;;;;;;17.16;67.68;95934.84;5022433;28;20694;-90
2022/11/11 10:43:45;;;;;;;8.63;7.73;;;;;;;17.18;67.49;95937.25;5013325;28;20560;-88
2022/11/11 10:46:18;;;;;;;7.70;6.90;;;;;;;17.17;67.48;95936.44;5005690;28;20212;-86
2022/11/11 10:48:53;;;;;;;8.07;7.17;;;;;;;17.07;67.44;95919.41;5010634;28;20212;-86
2022/11/11 10:51:23;;;;;;;8.20;6.57;;;;;;;17.13;67.43;95926.56;5020551;28;20740;-85
2022/11/11 10:54:00;;;;;;;8.37;7.10;;;;;;;17.00;67.35;95912.22;5022655;28;20445;-84
2022/11/11 10:56:37;;;;;;;7.63;6.43;;;;;;;17.09;67.34;95936.38;5005992;28;20209;-87
2022/11/11 10:59:15;;;;;;;7.63;6.87;;;;;;;16.99;67.31;95914.97;5002691;28;20775;-87
2022/11/11 11:01:49;;;;;;;9.60;6.70;;;;;;;16.72;67.27;95874.47;5012538;28;20291;-89
2022/11/11 11:04:24;;;;;;;7.47;6.70;;;;;;;16.70;67.30;95869.41;5006525;28;20243;-87
2022/11/11 11:06:57;;;;;;;7.23;6.47;;;;;;;17.02;67.08;95918.06;5019623;28;20290;-89
2022/11/11 11:09:30;;;;;;;7.73;6.93;;;;;;;16.79;66.98;95885.84;5026020;28;20202;-86
2022/11/11 11:12:05;;;;;;;7.03;6.33;;;;;;;17.03;66.91;95913.72;5031691;28;20207;-83
2022/11/11 11:14:36;;;;;;;7.60;6.83;;;;;;;17.09;66.63;95920.84;5031214;28;20274;-84
2022/11/11 11:17:40;;;;;;;9.37;5.97;;;;;;;16.69;66.51;95836.00;5024326;28;20207;-85
2022/11/11 11:20:13;;;;;;;8.07;6.17;;;;;;;16.82;66.00;95846.00;5019176;28;20231;-84
2022/11/11 11:23:00;;;;;;;6.67;6.07;;;;;;;16.74;65.67;95818.31;5021016;28;20271;-90
2022/11/11 11:25:32;;;;;;;7.77;6.30;;;;;;;17.29;65.50;95898.25;5023060;28;20207;-88
2022/11/11 11:28:12;;;;;;;7.80;6.50;;;;;;;17.37;65.00;95900.09;5020831;28;20189;-85
2022/11/11 11:30:58;;;;;;;6.90;6.17;;;;;;;17.14;65.04;95855.78;5033436;28;20274;-84
2022/11/11 11:33:29;;;;;;;6.73;6.03;;;;;;;17.11;64.98;95845.78;5028308;28;20315;-85
2022/11/11 11:35:55;;;;;;;10.77;6.90;;;;;;;17.46;64.77;95892.25;5029023;28;20190;-85
2022/11/11 11:38:40;;;;;;;6.67;6.03;;;;;;;17.46;64.50;95881.09;5043153;28;20291;-83
2022/11/11 11:41:14;;;;;;;7.60;6.27;;;;;;;17.59;64.35;95888.47;5035148;28;21311;-83
2022/11/11 11:44:03;;;;;;;6.30;5.73;;;;;;;17.35;64.08;95843.34;5031967;28;20199;-82
2022/11/11 11:46:38;;;;;;;6.80;6.10;;;;;;;17.70;64.06;95886.44;5028020;28;20206;-86
2022/11/11 11:49:21;;;;;;;6.43;5.80;;;;;;;17.76;63.85;95888.44;5036574;28;20196;-82
2022/11/11 11:52:07;;;;;;;8.17;5.37;;;;;;;17.71;63.57;95869.16;5034061;28;20310;-83
2022/11/11 11:54:56;;;;;;;6.77;5.60;;;;;;;17.82;63.40;95878.44;5036199;28;20196;-84
2022/11/11 11:57:40;;;;;;;6.30;5.43;;;;;;;17.75;63.41;95868.72;5028229;28;20193;-84
2022/11/11 12:00:18;;;;;;;6.00;5.40;;;;;;;17.68;63.29;95853.91;5035031;28;20290;-85
2022/11/11 12:03:13;;;;;;;9.83;5.63;;;;;;;17.55;63.20;95839.63;5037574;28;20222;-82
2022/11/11 12:05:43;;;;;;;6.93;5.73;;;;;;;17.51;63.38;95840.88;5005062;28;20243;-82
2022/11/11 12:08:38;;;;;;;7.50;6.23;;;;;;;17.67;63.41;95873.00;5013634;28;20195;-82
2022/11/11 12:11:14;;;;;;;6.47;5.03;;;;;;;17.51;63.44;95855.59;5007417;28;20193;-82
2022/11/11 12:14:03;;;;;;;6.33;5.63;;;;;;;17.60;63.45;95880.53;4998788;28;20215;-81
2022/11/11 12:16:39;;;;;;;6.63;5.23;;;;;;;17.53;63.77;95876.97;4999404;28;20201;-82
2022/11/11 12:19:36;;;;;;;6.10;5.50;;;;;;;16.94;63.69;95786.19;5001565;28;20224;-82
2022/11/11 12:22:09;;;;;;;6.27;5.60;;;;;;;17.09;63.70;95821.81;4998984;28;20208;-82
2022/11/11 12:24:49;;;;;;;5.10;4.57;;;;;;;17.16;63.67;95834.00;4999573;28;20239;-83
2022/11/11 12:27:29;;;;;;;5.90;5.37;;;;;;;16.86;63.44;95787.91;4997803;28;20193;-82
2022/11/11 12:30:04;;;;;;;6.53;5.17;;;;;;;17.23;63.52;95852.34;4999885;28;20199;-82
2022/11/11 12:33:01;;;;;;;5.63;5.07;;;;;;;17.15;63.36;95845.31;4996729;28;20212;-82
2022/11/11 12:35:48;;;;;;;5.43;4.93;;;;;;;17.03;63.44;95831.00;4926549;29;20718;-82
2022/11/11 12:38:39;;;;;;;5.77;5.17;;;;;;;16.75;63.43;95794.94;4929931;29;20239;-81
2022/11/11 12:41:24;;;;;;;5.43;4.93;;;;;;;16.75;63.51;95792.34;4932801;29;20203;-81
2022/11/11 12:44:01;;;;;;;5.50;5.00;;;;;;;16.78;63.67;95810.13;4937754;29;20195;-84
2022/11/11 12:46:40;;;;;;;7.07;5.43;;;;;;;16.64;63.33;95796.88;4940486;29;20202;-85
2022/11/11 12:49:37;;;;;;;5.60;5.10;;;;;;;16.92;63.37;95842.38;4946179;29;20191;-85
2022/11/11 12:52:19;;;;;;;5.37;4.83;;;;;;;16.96;63.43;95853.22;4940011;29;20204;-83
2022/11/11 12:54:59;;;;;;;5.63;4.70;;;;;;;16.92;63.45;95857.06;4933859;29;20195;-82